Pateros, Washington
Current Conditions -  °F | °C
As of 7:03 PM on Wednesday 26 Nov 2014 (Local Time) from KOMK Reporting Station
Haze Haze  
Wind Chill: 27°   Ceiling: 300
Heat Index: 34°   Visibility: 1mi
Dew Point: 33°   Wind: 8mph
Humidity: 96%   Direction: 160°SSE
Pressure: 30.02"   Gusts: NA
Location:  48.05°N, 119.9°W
Report Text: KOMK 270303Z AUTO 16007KT 1SM BR BKN003 OVC010 01/01 A3002 RMK AO2 T00110006
Loading
Personal Weather Stations






























Interactive Weather Map New forecast layout! Learn more

10-Day Weather Forecast

Advertisements
Track Severe Weather on mobile